createdAt,value
2019-03-20T20:52:43.668Z,8.69
2019-03-20T20:55:14.243Z,8.46
2019-03-20T20:57:42.534Z,8.36
2019-03-20T21:00:21.961Z,8.33
2019-03-20T21:02:50.337Z,8.31
2019-03-20T21:05:18.679Z,8.24
2019-03-20T21:07:46.989Z,8.20
2019-03-20T21:10:19.261Z,8.13
2019-03-20T21:12:56.101Z,8.06
2019-03-20T21:15:20.146Z,8.01
2019-03-20T21:17:51.682Z,8.01
2019-03-20T21:20:20.033Z,8.02
2019-03-20T21:23:20.077Z,7.95
2019-03-20T21:25:48.435Z,7.93
2019-03-20T21:28:39.531Z,7.84
2019-03-20T21:31:11.260Z,7.72
2019-03-20T21:34:05.635Z,7.69
2019-03-20T21:36:56.538Z,7.55
2019-03-20T21:39:24.917Z,7.59
2019-03-20T21:42:22.385Z,7.53
2019-03-20T21:45:02.979Z,7.46
2019-03-20T21:47:34.140Z,7.36
2019-03-20T21:50:39.209Z,7.28
2019-03-20T21:53:09.140Z,7.20
2019-03-20T21:56:14.161Z,7.24
2019-03-20T22:02:09.830Z,7.00
2019-03-20T22:08:49.633Z,6.92
2019-03-20T22:11:33.393Z,6.90
2019-03-20T22:14:07.966Z,6.91
2019-03-20T22:17:27.315Z,6.86
2019-03-20T22:20:04.673Z,6.82
2019-03-20T22:28:34.810Z,6.76
2019-03-20T22:31:04.739Z,6.77
2019-03-20T22:34:11.115Z,6.81
2019-03-20T22:36:51.594Z,6.74
2019-03-20T22:39:48.663Z,6.69
2019-03-20T22:42:20.229Z,6.67
2019-03-20T22:44:51.777Z,6.67
2019-03-20T22:47:58.652Z,6.63
2019-03-20T22:50:54.869Z,6.66
2019-03-20T22:53:34.956Z,6.66
2019-03-20T22:56:15.142Z,6.65
2019-03-20T22:58:44.497Z,6.68
2019-03-20T23:01:16.187Z,6.75
2019-03-20T23:03:53.749Z,6.82
2019-03-20T23:06:22.803Z,6.89
2019-03-20T23:08:51.094Z,6.95
2019-03-20T23:11:19.373Z,7.01
2019-03-20T23:13:47.661Z,7.07
2019-03-20T23:16:19.084Z,7.16
2019-03-20T23:18:47.389Z,7.29
2019-03-20T23:21:15.664Z,7.34
2019-03-20T23:23:43.952Z,7.40
2019-03-20T23:26:12.259Z,7.45
2019-03-20T23:28:41.486Z,7.48
2019-03-20T23:31:09.800Z,7.51
2019-03-20T23:33:38.083Z,7.54
2019-03-20T23:36:07.549Z,7.56
2019-03-20T23:38:35.809Z,7.59
2019-03-20T23:41:04.968Z,7.62
2019-03-20T23:43:33.253Z,7.62
2019-03-20T23:46:01.623Z,7.64
2019-03-20T23:48:48.204Z,7.62
2019-03-20T23:51:19.891Z,7.63
2019-03-20T23:53:50.371Z,7.66
2019-03-20T23:56:18.003Z,7.66
2019-03-20T23:58:46.284Z,7.69
